sensor_id;sensor_type;location;lat;lon;timestamp;P1;durP1;ratioP1;P2;durP2;ratioP2
21038;SDS011;10678;51.002;4.786;2024-03-23T00:55:34;15.90;;;3.75;;
21038;SDS011;10678;51.002;4.786;2024-03-23T00:57:59;20.10;;;3.22;;
21038;SDS011;10678;51.002;4.786;2024-03-23T01:00:25;11.95;;;3.67;;
21038;SDS011;10678;51.002;4.786;2024-03-23T01:02:51;13.90;;;3.35;;
21038;SDS011;10678;51.002;4.786;2024-03-23T01:05:16;12.98;;;3.70;;
21038;SDS011;10678;51.002;4.786;2024-03-23T01:07:42;12.02;;;3.15;;
21038;SDS011;10678;51.002;4.786;2024-03-23T01:10:08;15.57;;;3.15;;
21038;SDS011;10678;51.002;4.786;2024-03-23T01:12:33;17.23;;;3.92;;
21038;SDS011;10678;51.002;4.786;2024-03-23T01:14:59;19.83;;;3.63;;
21038;SDS011;10678;51.002;4.786;2024-03-23T01:17:25;11.82;;;3.17;;
21038;SDS011;10678;51.002;4.786;2024-03-23T01:19:50;15.88;;;3.05;;
21038;SDS011;10678;51.002;4.786;2024-03-23T01:22:16;16.40;;;3.15;;
21038;SDS011;10678;51.002;4.786;2024-03-23T01:24:42;18.48;;;3.72;;
21038;SDS011;10678;51.002;4.786;2024-03-23T01:27:08;11.63;;;2.88;;
21038;SDS011;10678;51.002;4.786;2024-03-23T01:29:33;15.25;;;2.72;;
21038;SDS011;10678;51.002;4.786;2024-03-23T01:31:59;15.43;;;2.90;;
21038;SDS011;10678;51.002;4.786;2024-03-23T01:34:25;17.10;;;3.00;;
21038;SDS011;10678;51.002;4.786;2024-03-23T01:36:51;11.43;;;2.50;;
21038;SDS011;10678;51.002;4.786;2024-03-23T01:39:16;15.27;;;3.50;;
21038;SDS011;10678;51.002;4.786;2024-03-23T01:41:42;9.30;;;2.22;;
21038;SDS011;10678;51.002;4.786;2024-03-23T01:44:08;15.73;;;2.50;;
21038;SDS011;10678;51.002;4.786;2024-03-23T01:46:37;11.57;;;2.58;;
21038;SDS011;10678;51.002;4.786;2024-03-23T01:49:03;7.80;;;2.25;;
21038;SDS011;10678;51.002;4.786;2024-03-23T01:51:30;15.77;;;2.72;;
21038;SDS011;10678;51.002;4.786;2024-03-23T01:53:57;8.88;;;2.47;;
21038;SDS011;10678;51.002;4.786;2024-03-23T01:56:25;11.75;;;2.15;;
21038;SDS011;10678;51.002;4.786;2024-03-23T01:58:51;11.13;;;2.35;;
21038;SDS011;10678;51.002;4.786;2024-03-23T02:01:17;15.52;;;2.83;;
21038;SDS011;10678;51.002;4.786;2024-03-23T02:03:42;17.58;;;3.40;;
21038;SDS011;10678;51.002;4.786;2024-03-23T02:06:08;11.48;;;3.22;;
21038;SDS011;10678;51.002;4.786;2024-03-23T02:08:34;15.25;;;4.18;;
21038;SDS011;10678;51.002;4.786;2024-03-23T02:11:00;17.60;;;4.45;;
21038;SDS011;10678;51.002;4.786;2024-03-23T02:13:25;21.30;;;4.25;;
21038;SDS011;10678;51.002;4.786;2024-03-23T02:15:51;17.80;;;3.90;;
21038;SDS011;10678;51.002;4.786;2024-03-23T02:18:17;11.65;;;3.35;;
21038;SDS011;10678;51.002;4.786;2024-03-23T02:20:43;10.32;;;2.88;;
21038;SDS011;10678;51.002;4.786;2024-03-23T02:23:16;13.27;;;3.20;;
21038;SDS011;10678;51.002;4.786;2024-03-23T02:25:43;17.05;;;3.47;;
21038;SDS011;10678;51.002;4.786;2024-03-23T02:28:09;11.38;;;2.63;;
21038;SDS011;10678;51.002;4.786;2024-03-23T02:30:36;12.45;;;2.90;;
21038;SDS011;10678;51.002;4.786;2024-03-23T02:33:02;19.55;;;3.22;;
21038;SDS011;10678;51.002;4.786;2024-03-23T02:35:28;11.13;;;2.63;;
21038;SDS011;10678;51.002;4.786;2024-03-23T02:37:53;19.98;;;3.40;;
21038;SDS011;10678;51.002;4.786;2024-03-23T02:40:21;10.57;;;3.13;;
21038;SDS011;10678;51.002;4.786;2024-03-23T02:42:47;11.63;;;2.80;;
21038;SDS011;10678;51.002;4.786;2024-03-23T02:45:13;13.25;;;3.05;;
21038;SDS011;10678;51.002;4.786;2024-03-23T02:47:39;16.02;;;3.70;;
21038;SDS011;10678;51.002;4.786;2024-03-23T02:50:04;17.40;;;4.40;;
21038;SDS011;10678;51.002;4.786;2024-03-23T02:52:30;14.40;;;3.63;;
21038;SDS011;10678;51.002;4.786;2024-03-23T02:54:56;13.20;;;3.95;;
21038;SDS011;10678;51.002;4.786;2024-03-23T02:57:22;21.08;;;4.30;;
21038;SDS011;10678;51.002;4.786;2024-03-23T02:59:48;22.30;;;4.47;;
21038;SDS011;10678;51.002;4.786;2024-03-23T03:02:15;15.27;;;4.78;;
21038;SDS011;10678;51.002;4.786;2024-03-23T03:04:41;13.25;;;4.28;;
21038;SDS011;10678;51.002;4.786;2024-03-23T03:07:07;22.13;;;4.78;;
21038;SDS011;10678;51.002;4.786;2024-03-23T03:09:32;22.98;;;5.35;;
21038;SDS011;10678;51.002;4.786;2024-03-23T03:12:00;19.83;;;4.60;;
21038;SDS011;10678;51.002;4.786;2024-03-23T03:14:27;20.15;;;5.93;;
21038;SDS011;10678;51.002;4.786;2024-03-23T03:16:53;24.70;;;5.55;;
21038;SDS011;10678;51.002;4.786;2024-03-23T03:19:19;21.05;;;6.53;;
21038;SDS011;10678;51.002;4.786;2024-03-23T03:21:44;18.15;;;5.30;;
21038;SDS011;10678;51.002;4.786;2024-03-23T03:24:10;15.57;;;5.35;;
21038;SDS011;10678;51.002;4.786;2024-03-23T03:26:36;19.30;;;5.50;;
21038;SDS011;10678;51.002;4.786;2024-03-23T03:29:02;21.75;;;6.90;;
21038;SDS011;10678;51.002;4.786;2024-03-23T03:31:27;21.27;;;6.75;;
21038;SDS011;10678;51.002;4.786;2024-03-23T03:33:53;29.52;;;8.52;;
21038;SDS011;10678;51.002;4.786;2024-03-23T03:36:19;25.35;;;10.63;;
21038;SDS011;10678;51.002;4.786;2024-03-23T03:38:45;30.50;;;10.75;;
21038;SDS011;10678;51.002;4.786;2024-03-23T03:41:10;18.63;;;7.40;;
21038;SDS011;10678;51.002;4.786;2024-03-23T03:43:36;22.25;;;8.20;;
21038;SDS011;10678;51.002;4.786;2024-03-23T03:46:03;19.25;;;6.80;;
21038;SDS011;10678;51.002;4.786;2024-03-23T03:48:29;25.70;;;7.57;;
21038;SDS011;10678;51.002;4.786;2024-03-23T03:50:54;18.23;;;6.60;;
21038;SDS011;10678;51.002;4.786;2024-03-23T03:53:20;19.25;;;6.05;;
21038;SDS011;10678;51.002;4.786;2024-03-23T03:55:46;17.10;;;5.35;;
21038;SDS011;10678;51.002;4.786;2024-03-23T03:58:12;19.52;;;5.93;;
21038;SDS011;10678;51.002;4.786;2024-03-23T04:00:37;20.10;;;5.63;;
21038;SDS011;10678;51.002;4.786;2024-03-23T04:03:03;38.25;;;5.72;;
21038;SDS011;10678;51.002;4.786;2024-03-23T04:05:29;20.90;;;6.20;;
21038;SDS011;10678;51.002;4.786;2024-03-23T04:07:54;19.50;;;6.38;;
21038;SDS011;10678;51.002;4.786;2024-03-23T04:10:20;23.33;;;5.70;;
21038;SDS011;10678;51.002;4.786;2024-03-23T04:12:46;15.57;;;5.53;;
21038;SDS011;10678;51.002;4.786;2024-03-23T04:15:12;14.32;;;5.35;;
21038;SDS011;10678;51.002;4.786;2024-03-23T04:17:38;19.35;;;6.22;;
21038;SDS011;10678;51.002;4.786;2024-03-23T04:20:04;25.25;;;6.10;;
21038;SDS011;10678;51.002;4.786;2024-03-23T04:22:34;30.73;;;7.18;;
21038;SDS011;10678;51.002;4.786;2024-03-23T04:25:00;14.77;;;5.00;;
21038;SDS011;10678;51.002;4.786;2024-03-23T04:27:31;20.40;;;6.07;;
21038;SDS011;10678;51.002;4.786;2024-03-23T04:30:00;29.33;;;6.95;;
21038;SDS011;10678;51.002;4.786;2024-03-23T04:32:27;15.85;;;5.18;;
21038;SDS011;10678;51.002;4.786;2024-03-23T04:34:53;17.73;;;5.95;;
21038;SDS011;10678;51.002;4.786;2024-03-23T04:37:19;23.98;;;6.25;;
21038;SDS011;10678;51.002;4.786;2024-03-23T04:39:45;25.60;;;5.93;;
21038;SDS011;10678;51.002;4.786;2024-03-23T04:42:11;17.25;;;5.57;;
21038;SDS011;10678;51.002;4.786;2024-03-23T04:44:37;21.38;;;6.55;;
21038;SDS011;10678;51.002;4.786;2024-03-23T04:47:03;22.75;;;5.95;;
21038;SDS011;10678;51.002;4.786;2024-03-23T04:49:30;25.92;;;5.95;;
21038;SDS011;10678;51.002;4.786;2024-03-23T04:51:56;17.30;;;6.13;;
21038;SDS011;10678;51.002;4.786;2024-03-23T04:54:21;28.65;;;7.10;;
21038;SDS011;10678;51.002;4.786;2024-03-23T04:56:47;19.65;;;6.65;;
21038;SDS011;10678;51.002;4.786;2024-03-23T04:59:12;21.70;;;7.53;;
21038;SDS011;10678;51.002;4.786;2024-03-23T05:01:38;19.55;;;6.63;;
21038;SDS011;10678;51.002;4.786;2024-03-23T05:04:06;21.00;;;7.30;;
21038;SDS011;10678;51.002;4.786;2024-03-23T05:06:32;25.55;;;7.43;;
21038;SDS011;10678;51.002;4.786;2024-03-23T05:08:59;24.17;;;7.05;;
21038;SDS011;10678;51.002;4.786;2024-03-23T05:11:26;32.30;;;7.40;;
21038;SDS011;10678;51.002;4.786;2024-03-23T05:13:52;21.23;;;6.70;;
21038;SDS011;10678;51.002;4.786;2024-03-23T05:16:17;20.48;;;7.30;;
21038;SDS011;10678;51.002;4.786;2024-03-23T05:18:43;20.00;;;7.47;;
21038;SDS011;10678;51.002;4.786;2024-03-23T05:21:08;19.33;;;7.50;;
21038;SDS011;10678;51.002;4.786;2024-03-23T05:23:34;24.77;;;6.88;;
21038;SDS011;10678;51.002;4.786;2024-03-23T05:26:00;21.60;;;6.95;;
21038;SDS011;10678;51.002;4.786;2024-03-23T05:28:26;24.27;;;7.32;;
21038;SDS011;10678;51.002;4.786;2024-03-23T05:30:55;20.30;;;7.65;;
21038;SDS011;10678;51.002;4.786;2024-03-23T05:33:22;22.98;;;7.47;;
21038;SDS011;10678;51.002;4.786;2024-03-23T05:35:56;21.88;;;6.90;;
21038;SDS011;10678;51.002;4.786;2024-03-23T05:38:22;19.67;;;6.80;;
21038;SDS011;10678;51.002;4.786;2024-03-23T05:43:23;14.02;;;5.78;;
21038;SDS011;10678;51.002;4.786;2024-03-23T05:45:53;21.08;;;6.15;;
21038;SDS011;10678;51.002;4.786;2024-03-23T05:48:22;13.73;;;5.55;;
21038;SDS011;10678;51.002;4.786;2024-03-23T05:50:48;12.35;;;5.18;;
21038;SDS011;10678;51.002;4.786;2024-03-23T05:53:15;17.50;;;5.70;;
21038;SDS011;10678;51.002;4.786;2024-03-23T05:55:41;17.70;;;5.45;;
21038;SDS011;10678;51.002;4.786;2024-03-23T05:58:07;19.73;;;5.20;;
21038;SDS011;10678;51.002;4.786;2024-03-23T06:00:32;16.15;;;5.15;;
21038;SDS011;10678;51.002;4.786;2024-03-23T06:02:58;21.45;;;5.57;;
21038;SDS011;10678;51.002;4.786;2024-03-23T06:05:23;15.95;;;5.60;;
21038;SDS011;10678;51.002;4.786;2024-03-23T06:07:49;16.98;;;5.05;;
21038;SDS011;10678;51.002;4.786;2024-03-23T06:10:15;17.40;;;6.03;;
21038;SDS011;10678;51.002;4.786;2024-03-23T06:12:40;20.98;;;6.28;;
21038;SDS011;10678;51.002;4.786;2024-03-23T06:15:06;24.75;;;6.22;;
21038;SDS011;10678;51.002;4.786;2024-03-23T06:17:35;15.02;;;5.20;;
21038;SDS011;10678;51.002;4.786;2024-03-23T06:20:01;17.23;;;5.13;;
21038;SDS011;10678;51.002;4.786;2024-03-23T06:22:27;15.75;;;5.53;;
21038;SDS011;10678;51.002;4.786;2024-03-23T06:24:53;15.00;;;5.30;;
21038;SDS011;10678;51.002;4.786;2024-03-23T06:27:18;14.23;;;5.00;;
21038;SDS011;10678;51.002;4.786;2024-03-23T06:29:44;15.70;;;4.93;;
21038;SDS011;10678;51.002;4.786;2024-03-23T06:32:10;16.85;;;4.53;;
21038;SDS011;10678;51.002;4.786;2024-03-23T06:34:35;14.10;;;4.88;;
21038;SDS011;10678;51.002;4.786;2024-03-23T06:37:01;15.40;;;4.43;;
21038;SDS011;10678;51.002;4.786;2024-03-23T06:39:28;20.02;;;3.83;;
21038;SDS011;10678;51.002;4.786;2024-03-23T06:41:54;11.38;;;4.25;;
21038;SDS011;10678;51.002;4.786;2024-03-23T06:44:20;15.38;;;4.35;;
21038;SDS011;10678;51.002;4.786;2024-03-23T06:46:46;17.85;;;4.85;;
21038;SDS011;10678;51.002;4.786;2024-03-23T06:49:12;16.85;;;4.45;;
21038;SDS011;10678;51.002;4.786;2024-03-23T06:51:38;11.57;;;4.20;;
21038;SDS011;10678;51.002;4.786;2024-03-23T06:54:04;22.80;;;4.55;;
21038;SDS011;10678;51.002;4.786;2024-03-23T06:56:30;15.40;;;4.78;;
21038;SDS011;10678;51.002;4.786;2024-03-23T06:58:56;15.75;;;4.13;;
21038;SDS011;10678;51.002;4.786;2024-03-23T07:01:22;13.05;;;3.63;;
21038;SDS011;10678;51.002;4.786;2024-03-23T07:03:47;15.38;;;3.55;;
21038;SDS011;10678;51.002;4.786;2024-03-23T07:06:13;18.52;;;3.83;;
21038;SDS011;10678;51.002;4.786;2024-03-23T07:08:39;13.55;;;3.83;;
21038;SDS011;10678;51.002;4.786;2024-03-23T07:11:04;15.15;;;4.05;;
21038;SDS011;10678;51.002;4.786;2024-03-23T07:13:30;17.90;;;4.03;;
21038;SDS011;10678;51.002;4.786;2024-03-23T07:15:56;15.88;;;3.60;;
21038;SDS011;10678;51.002;4.786;2024-03-23T07:18:24;11.40;;;2.88;;
21038;SDS011;10678;51.002;4.786;2024-03-23T07:20:57;11.02;;;3.15;;
21038;SDS011;10678;51.002;4.786;2024-03-23T07:23:23;14.68;;;3.92;;
21038;SDS011;10678;51.002;4.786;2024-03-23T07:25:56;12.75;;;2.60;;
21038;SDS011;10678;51.002;4.786;2024-03-23T07:28:25;12.25;;;3.20;;
21038;SDS011;10678;51.002;4.786;2024-03-23T07:31:05;16.85;;;3.72;;
21038;SDS011;10678;51.002;4.786;2024-03-23T07:33:35;18.67;;;3.30;;
21038;SDS011;10678;51.002;4.786;2024-03-23T07:36:02;18.63;;;2.80;;
21038;SDS011;10678;51.002;4.786;2024-03-23T07:38:28;11.93;;;3.00;;
21038;SDS011;10678;51.002;4.786;2024-03-23T07:43:33;14.18;;;2.75;;
21038;SDS011;10678;51.002;4.786;2024-03-23T07:45:59;17.02;;;3.42;;
21038;SDS011;10678;51.002;4.786;2024-03-23T07:48:24;10.90;;;2.10;;
21038;SDS011;10678;51.002;4.786;2024-03-23T07:53:25;14.15;;;2.80;;
21038;SDS011;10678;51.002;4.786;2024-03-23T07:55:57;16.35;;;3.38;;
21038;SDS011;10678;51.002;4.786;2024-03-23T07:58:24;11.32;;;2.75;;
21038;SDS011;10678;51.002;4.786;2024-03-23T08:00:51;12.10;;;2.33;;
21038;SDS011;10678;51.002;4.786;2024-03-23T08:03:17;10.15;;;2.47;;
21038;SDS011;10678;51.002;4.786;2024-03-23T08:05:43;7.43;;;1.52;;
21038;SDS011;10678;51.002;4.786;2024-03-23T08:08:09;16.15;;;2.60;;
21038;SDS011;10678;51.002;4.786;2024-03-23T08:10:35;11.88;;;2.58;;
21038;SDS011;10678;51.002;4.786;2024-03-23T08:13:01;7.93;;;1.80;;
21038;SDS011;10678;51.002;4.786;2024-03-23T08:15:29;7.50;;;1.95;;
21038;SDS011;10678;51.002;4.786;2024-03-23T08:17:57;10.95;;;2.42;;
21038;SDS011;10678;51.002;4.786;2024-03-23T08:20:24;9.52;;;2.28;;
21038;SDS011;10678;51.002;4.786;2024-03-23T08:22:50;10.82;;;1.75;;
21038;SDS011;10678;51.002;4.786;2024-03-23T08:25:15;13.02;;;2.15;;
21038;SDS011;10678;51.002;4.786;2024-03-23T08:27:41;14.07;;;2.50;;
21038;SDS011;10678;51.002;4.786;2024-03-23T08:30:09;14.43;;;2.40;;
21038;SDS011;10678;51.002;4.786;2024-03-23T08:32:36;10.65;;;2.05;;
21038;SDS011;10678;51.002;4.786;2024-03-23T08:35:02;17.90;;;2.72;;
21038;SDS011;10678;51.002;4.786;2024-03-23T08:37:27;12.27;;;2.45;;
21038;SDS011;10678;51.002;4.786;2024-03-23T08:39:53;10.77;;;2.55;;
21038;SDS011;10678;51.002;4.786;2024-03-23T08:42:19;12.68;;;2.10;;
21038;SDS011;10678;51.002;4.786;2024-03-23T08:44:44;13.73;;;2.33;;
21038;SDS011;10678;51.002;4.786;2024-03-23T08:47:14;9.75;;;1.90;;
21038;SDS011;10678;51.002;4.786;2024-03-23T08:49:44;13.60;;;2.35;;
21038;SDS011;10678;51.002;4.786;2024-03-23T08:52:09;12.13;;;1.90;;
21038;SDS011;10678;51.002;4.786;2024-03-23T08:54:35;10.73;;;3.17;;
21038;SDS011;10678;51.002;4.786;2024-03-23T08:57:01;9.88;;;1.98;;
21038;SDS011;10678;51.002;4.786;2024-03-23T08:59:26;10.13;;;2.20;;
21038;SDS011;10678;51.002;4.786;2024-03-23T09:01:52;8.57;;;1.88;;
21038;SDS011;10678;51.002;4.786;2024-03-23T09:04:18;9.63;;;1.90;;
21038;SDS011;10678;51.002;4.786;2024-03-23T09:06:44;8.65;;;1.80;;
21038;SDS011;10678;51.002;4.786;2024-03-23T09:09:10;9.82;;;1.50;;
21038;SDS011;10678;51.002;4.786;2024-03-23T09:11:35;9.63;;;1.90;;
21038;SDS011;10678;51.002;4.786;2024-03-23T09:14:02;10.60;;;2.30;;
21038;SDS011;10678;51.002;4.786;2024-03-23T09:16:28;8.68;;;1.65;;
21038;SDS011;10678;51.002;4.786;2024-03-23T09:18:54;6.78;;;1.48;;
21038;SDS011;10678;51.002;4.786;2024-03-23T09:21:19;10.52;;;2.50;;
21038;SDS011;10678;51.002;4.786;2024-03-23T09:23:45;6.30;;;1.77;;
21038;SDS011;10678;51.002;4.786;2024-03-23T09:26:11;8.45;;;1.90;;
21038;SDS011;10678;51.002;4.786;2024-03-23T09:28:37;7.32;;;1.77;;
21038;SDS011;10678;51.002;4.786;2024-03-23T09:31:06;6.47;;;1.55;;
21038;SDS011;10678;51.002;4.786;2024-03-23T09:33:34;8.15;;;2.20;;
21038;SDS011;10678;51.002;4.786;2024-03-23T09:36:03;11.48;;;2.72;;
21038;SDS011;10678;51.002;4.786;2024-03-23T09:38:29;7.32;;;1.90;;
21038;SDS011;10678;51.002;4.786;2024-03-23T09:40:55;7.45;;;1.85;;
21038;SDS011;10678;51.002;4.786;2024-03-23T09:43:21;6.75;;;1.65;;
21038;SDS011;10678;51.002;4.786;2024-03-23T09:45:47;7.82;;;1.75;;
21038;SDS011;10678;51.002;4.786;2024-03-23T09:48:14;12.93;;;2.20;;
21038;SDS011;10678;51.002;4.786;2024-03-23T09:50:41;11.10;;;1.73;;
21038;SDS011;10678;51.002;4.786;2024-03-23T09:53:07;7.07;;;1.73;;
21038;SDS011;10678;51.002;4.786;2024-03-23T09:55:34;10.23;;;1.67;;
21038;SDS011;10678;51.002;4.786;2024-03-23T09:58:03;8.45;;;1.77;;
21038;SDS011;10678;51.002;4.786;2024-03-23T10:00:33;9.57;;;1.80;;
21038;SDS011;10678;51.002;4.786;2024-03-23T10:03:01;7.57;;;1.88;;
21038;SDS011;10678;51.002;4.786;2024-03-23T10:05:30;13.50;;;2.10;;
21038;SDS011;10678;51.002;4.786;2024-03-23T10:10:40;8.65;;;1.40;;
21038;SDS011;10678;51.002;4.786;2024-03-23T10:13:05;8.23;;;1.30;;
21038;SDS011;10678;51.002;4.786;2024-03-23T10:15:33;13.35;;;2.00;;
21038;SDS011;10678;51.002;4.786;2024-03-23T10:20:41;8.50;;;1.73;;
21038;SDS011;10678;51.002;4.786;2024-03-23T10:23:07;5.47;;;1.20;;
21038;SDS011;10678;51.002;4.786;2024-03-23T10:25:41;2.78;;;0.85;;
21038;SDS011;10678;51.002;4.786;2024-03-23T10:28:06;6.68;;;1.40;;
21038;SDS011;10678;51.002;4.786;2024-03-23T10:30:32;3.33;;;1.00;;
21038;SDS011;10678;51.002;4.786;2024-03-23T10:33:10;7.38;;;1.08;;
21038;SDS011;10678;51.002;4.786;2024-03-23T10:35:36;6.45;;;1.30;;
21038;SDS011;10678;51.002;4.786;2024-03-23T10:38:06;7.03;;;1.15;;
21038;SDS011;10678;51.002;4.786;2024-03-23T10:40:36;5.88;;;0.75;;
21038;SDS011;10678;51.002;4.786;2024-03-23T10:43:04;8.57;;;1.20;;
21038;SDS011;10678;51.002;4.786;2024-03-23T10:45:31;7.47;;;1.60;;
21038;SDS011;10678;51.002;4.786;2024-03-23T10:47:57;9.82;;;1.80;;
21038;SDS011;10678;51.002;4.786;2024-03-23T10:50:23;11.20;;;1.73;;
21038;SDS011;10678;51.002;4.786;2024-03-23T10:52:49;7.25;;;1.58;;
21038;SDS011;10678;51.002;4.786;2024-03-23T10:55:17;8.57;;;1.40;;
21038;SDS011;10678;51.002;4.786;2024-03-23T10:57:53;7.00;;;1.85;;
21038;SDS011;10678;51.002;4.786;2024-03-23T11:00:20;5.82;;;1.50;;
21038;SDS011;10678;51.002;4.786;2024-03-23T11:02:47;10.00;;;2.55;;
21038;SDS011;10678;51.002;4.786;2024-03-23T11:07:52;7.90;;;1.70;;
21038;SDS011;10678;51.002;4.786;2024-03-23T11:10:36;7.75;;;1.80;;
21038;SDS011;10678;51.002;4.786;2024-03-23T11:15:47;5.78;;;1.30;;
21038;SDS011;10678;51.002;4.786;2024-03-23T11:18:12;6.05;;;1.38;;
21038;SDS011;10678;51.002;4.786;2024-03-23T11:20:45;8.85;;;1.38;;
21038;SDS011;10678;51.002;4.786;2024-03-23T11:23:26;5.15;;;1.00;;
21038;SDS011;10678;51.002;4.786;2024-03-23T11:25:53;4.55;;;1.10;;
21038;SDS011;10678;51.002;4.786;2024-03-23T11:28:18;5.13;;;0.98;;
21038;SDS011;10678;51.002;4.786;2024-03-23T11:30:44;6.13;;;1.42;;
21038;SDS011;10678;51.002;4.786;2024-03-23T11:33:10;5.22;;;1.30;;
21038;SDS011;10678;51.002;4.786;2024-03-23T11:40:40;7.05;;;1.50;;
21038;SDS011;10678;51.002;4.786;2024-03-23T11:43:08;6.97;;;1.75;;
21038;SDS011;10678;51.002;4.786;2024-03-23T11:45:36;5.07;;;1.40;;
21038;SDS011;10678;51.002;4.786;2024-03-23T11:50:35;8.40;;;1.95;;
21038;SDS011;10678;51.002;4.786;2024-03-23T11:58:13;9.45;;;1.77;;
21038;SDS011;10678;51.002;4.786;2024-03-23T12:00:39;7.53;;;1.73;;
21038;SDS011;10678;51.002;4.786;2024-03-23T12:03:06;6.78;;;1.67;;
21038;SDS011;10678;51.002;4.786;2024-03-23T12:05:32;8.93;;;1.80;;
21038;SDS011;10678;51.002;4.786;2024-03-23T12:10:49;8.70;;;2.75;;
21038;SDS011;10678;51.002;4.786;2024-03-23T12:13:17;4.95;;;1.40;;
21038;SDS011;10678;51.002;4.786;2024-03-23T12:15:48;7.07;;;1.13;;
21038;SDS011;10678;51.002;4.786;2024-03-23T12:18:15;9.50;;;1.45;;
21038;SDS011;10678;51.002;4.786;2024-03-23T12:20:41;7.35;;;1.67;;
21038;SDS011;10678;51.002;4.786;2024-03-23T12:23:10;6.90;;;1.10;;
21038;SDS011;10678;51.002;4.786;2024-03-23T12:25:40;6.10;;;1.80;;
21038;SDS011;10678;51.002;4.786;2024-03-23T12:28:06;9.10;;;1.25;;
21038;SDS011;10678;51.002;4.786;2024-03-23T12:30:33;6.03;;;1.40;;
21038;SDS011;10678;51.002;4.786;2024-03-23T12:32:59;5.15;;;1.33;;
21038;SDS011;10678;51.002;4.786;2024-03-23T12:35:25;2.88;;;0.85;;
21038;SDS011;10678;51.002;4.786;2024-03-23T12:37:51;4.68;;;1.05;;
21038;SDS011;10678;51.002;4.786;2024-03-23T12:40:16;5.63;;;1.42;;
21038;SDS011;10678;51.002;4.786;2024-03-23T12:42:42;7.75;;;1.00;;
21038;SDS011;10678;51.002;4.786;2024-03-23T12:45:08;4.70;;;1.23;;
21038;SDS011;10678;51.002;4.786;2024-03-23T12:47:33;7.85;;;1.50;;
21038;SDS011;10678;51.002;4.786;2024-03-23T12:49:59;11.02;;;1.80;;
21038;SDS011;10678;51.002;4.786;2024-03-23T12:52:25;6.15;;;0.98;;
21038;SDS011;10678;51.002;4.786;2024-03-23T12:54:54;6.88;;;1.25;;
21038;SDS011;10678;51.002;4.786;2024-03-23T12:57:25;5.10;;;1.38;;
21038;SDS011;10678;51.002;4.786;2024-03-23T12:59:51;6.28;;;1.20;;
21038;SDS011;10678;51.002;4.786;2024-03-23T13:02:18;4.53;;;0.88;;
21038;SDS011;10678;51.002;4.786;2024-03-23T13:04:51;6.25;;;1.10;;
21038;SDS011;10678;51.002;4.786;2024-03-23T13:07:18;5.68;;;0.98;;
21038;SDS011;10678;51.002;4.786;2024-03-23T13:09:44;5.28;;;1.20;;
21038;SDS011;10678;51.002;4.786;2024-03-23T13:12:10;4.57;;;0.90;;
21038;SDS011;10678;51.002;4.786;2024-03-23T13:14:39;8.70;;;1.77;;
21038;SDS011;10678;51.002;4.786;2024-03-23T13:17:05;4.95;;;1.10;;
21038;SDS011;10678;51.002;4.786;2024-03-23T13:19:32;4.68;;;0.90;;
21038;SDS011;10678;51.002;4.786;2024-03-23T13:21:58;6.70;;;1.35;;
21038;SDS011;10678;51.002;4.786;2024-03-23T13:24:25;6.00;;;1.30;;
21038;SDS011;10678;51.002;4.786;2024-03-23T13:26:54;4.88;;;1.33;;
21038;SDS011;10678;51.002;4.786;2024-03-23T13:29:21;10.70;;;1.10;;
21038;SDS011;10678;51.002;4.786;2024-03-23T13:31:50;6.70;;;1.00;;
21038;SDS011;10678;51.002;4.786;2024-03-23T13:34:17;4.20;;;0.88;;
21038;SDS011;10678;51.002;4.786;2024-03-23T13:36:45;5.95;;;1.10;;
21038;SDS011;10678;51.002;4.786;2024-03-23T13:39:12;6.65;;;1.20;;
21038;SDS011;10678;51.002;4.786;2024-03-23T13:44:05;3.88;;;0.93;;
21038;SDS011;10678;51.002;4.786;2024-03-23T13:46:31;4.93;;;1.13;;
21038;SDS011;10678;51.002;4.786;2024-03-23T13:48:57;6.07;;;0.95;;
21038;SDS011;10678;51.002;4.786;2024-03-23T13:51:23;6.13;;;1.38;;
21038;SDS011;10678;51.002;4.786;2024-03-23T13:53:52;4.20;;;0.93;;
21038;SDS011;10678;51.002;4.786;2024-03-23T13:56:29;3.90;;;1.10;;
21038;SDS011;10678;51.002;4.786;2024-03-23T13:58:56;6.55;;;1.38;;
21038;SDS011;10678;51.002;4.786;2024-03-23T14:01:23;3.67;;;0.77;;
21038;SDS011;10678;51.002;4.786;2024-03-23T14:03:49;9.75;;;1.85;;
21038;SDS011;10678;51.002;4.786;2024-03-23T14:06:14;7.28;;;1.15;;
21038;SDS011;10678;51.002;4.786;2024-03-23T14:08:40;5.78;;;1.30;;
21038;SDS011;10678;51.002;4.786;2024-03-23T14:11:07;6.05;;;1.30;;
21038;SDS011;10678;51.002;4.786;2024-03-23T14:13:36;10.25;;;1.83;;
21038;SDS011;10678;51.002;4.786;2024-03-23T14:16:02;5.85;;;1.27;;
21038;SDS011;10678;51.002;4.786;2024-03-23T14:18:28;4.30;;;1.23;;
21038;SDS011;10678;51.002;4.786;2024-03-23T14:20:58;3.97;;;1.05;;
21038;SDS011;10678;51.002;4.786;2024-03-23T14:23:28;5.68;;;2.10;;
21038;SDS011;10678;51.002;4.786;2024-03-23T14:25:55;5.55;;;1.20;;
21038;SDS011;10678;51.002;4.786;2024-03-23T14:28:22;7.20;;;1.63;;
21038;SDS011;10678;51.002;4.786;2024-03-23T14:30:49;6.70;;;1.30;;
21038;SDS011;10678;51.002;4.786;2024-03-23T14:33:15;7.07;;;1.48;;
21038;SDS011;10678;51.002;4.786;2024-03-23T14:35:41;4.80;;;1.48;;
21038;SDS011;10678;51.002;4.786;2024-03-23T14:38:07;5.80;;;1.50;;
21038;SDS011;10678;51.002;4.786;2024-03-23T14:40:33;7.03;;;1.80;;
21038;SDS011;10678;51.002;4.786;2024-03-23T14:42:58;4.30;;;1.25;;
21038;SDS011;10678;51.002;4.786;2024-03-23T14:45:24;4.32;;;1.17;;
21038;SDS011;10678;51.002;4.786;2024-03-23T14:47:50;7.07;;;1.63;;
21038;SDS011;10678;51.002;4.786;2024-03-23T14:50:17;3.70;;;1.27;;
21038;SDS011;10678;51.002;4.786;2024-03-23T14:52:46;7.05;;;1.67;;
21038;SDS011;10678;51.002;4.786;2024-03-23T14:55:12;5.35;;;1.35;;
21038;SDS011;10678;51.002;4.786;2024-03-23T14:57:38;7.40;;;1.75;;
21038;SDS011;10678;51.002;4.786;2024-03-23T15:00:08;4.63;;;1.42;;
21038;SDS011;10678;51.002;4.786;2024-03-23T15:02:38;4.38;;;1.38;;
21038;SDS011;10678;51.002;4.786;2024-03-23T15:05:07;4.47;;;1.30;;
21038;SDS011;10678;51.002;4.786;2024-03-23T15:07:35;10.15;;;2.05;;
21038;SDS011;10678;51.002;4.786;2024-03-23T15:10:03;4.55;;;1.65;;
21038;SDS011;10678;51.002;4.786;2024-03-23T15:12:30;9.70;;;1.67;;
21038;SDS011;10678;51.002;4.786;2024-03-23T15:14:58;7.05;;;1.50;;
21038;SDS011;10678;51.002;4.786;2024-03-23T15:17:24;4.90;;;1.75;;
21038;SDS011;10678;51.002;4.786;2024-03-23T15:19:50;11.75;;;1.90;;
21038;SDS011;10678;51.002;4.786;2024-03-23T15:22:16;7.15;;;1.65;;
21038;SDS011;10678;51.002;4.786;2024-03-23T15:24:41;7.40;;;1.70;;
21038;SDS011;10678;51.002;4.786;2024-03-23T15:27:07;7.43;;;1.60;;
21038;SDS011;10678;51.002;4.786;2024-03-23T15:29:34;8.98;;;1.45;;
21038;SDS011;10678;51.002;4.786;2024-03-23T15:32:01;8.27;;;1.50;;
21038;SDS011;10678;51.002;4.786;2024-03-23T15:34:28;8.88;;;1.50;;
21038;SDS011;10678;51.002;4.786;2024-03-23T15:36:54;6.40;;;1.60;;
21038;SDS011;10678;51.002;4.786;2024-03-23T15:39:20;6.20;;;1.45;;
21038;SDS011;10678;51.002;4.786;2024-03-23T15:41:47;9.43;;;1.50;;
21038;SDS011;10678;51.002;4.786;2024-03-23T15:44:13;8.80;;;1.90;;
21038;SDS011;10678;51.002;4.786;2024-03-23T15:46:39;8.38;;;1.95;;
21038;SDS011;10678;51.002;4.786;2024-03-23T15:49:04;8.07;;;1.52;;
21038;SDS011;10678;51.002;4.786;2024-03-23T15:51:31;4.65;;;1.65;;
21038;SDS011;10678;51.002;4.786;2024-03-23T15:53:59;5.72;;;1.73;;
21038;SDS011;10678;51.002;4.786;2024-03-23T15:56:25;7.00;;;1.52;;
21038;SDS011;10678;51.002;4.786;2024-03-23T15:58:51;5.32;;;1.60;;
21038;SDS011;10678;51.002;4.786;2024-03-23T16:01:17;5.68;;;1.58;;
21038;SDS011;10678;51.002;4.786;2024-03-23T16:03:43;6.63;;;1.38;;
21038;SDS011;10678;51.002;4.786;2024-03-23T16:06:09;6.38;;;1.40;;
21038;SDS011;10678;51.002;4.786;2024-03-23T16:08:34;4.85;;;1.52;;